Terminal Aerodrome Forecast
Issued by NWS

Home | Current Version | Previous Version | Text Only | Print | Product List | Glossary On
Versions: 1 2 3 4 5 6 7 8 9 10 11 12 13
000
FTUS42 TJSJ 210008 CCA
TAFIST
TAF COR
TIST 210008Z 2100/2124 25012KT P6SM -SHRA SCT024 SCT035 SCT090
      TEMPO 2102/2104 VRB15G25KT 5SM SHRA BKN025 BKN035
     FM211200 31015KT P6SM VCSH SCT030 SCT060
     FM212000 33010KT P6SM FEW030=

USA.gov is the U.S. government's official web portal to all federal, state and local government web resources and services.